createdAt,value
2018-08-18T00:00:38.403Z,99807.34
2018-08-18T00:05:21.947Z,99807.69
2018-08-18T00:10:08.284Z,99822.66
2018-08-18T00:14:51.814Z,99813.63
2018-08-18T00:19:36.153Z,99813.45
2018-08-18T00:24:19.704Z,99820.17
2018-08-18T00:29:03.212Z,99828.49
2018-08-18T00:33:46.776Z,99819.16
2018-08-18T00:38:30.304Z,99819.36
2018-08-18T00:43:13.977Z,99828.58
2018-08-18T00:47:57.445Z,99823.91
2018-08-18T00:52:41.117Z,99815.44
2018-08-18T00:57:33.405Z,99806.38
2018-08-18T01:02:16.795Z,99807.84
2018-08-18T01:07:04.881Z,99809.70
2018-08-18T01:11:48.627Z,99810.97
2018-08-18T01:16:31.822Z,99808.92
2018-08-18T01:21:15.165Z,99806.75
2018-08-18T01:25:58.716Z,99803.89
2018-08-18T01:30:42.205Z,99813.17
2018-08-18T01:35:26.689Z,99807.52
2018-08-18T01:40:10.047Z,99806.82
2018-08-18T01:44:55.427Z,99812.34
2018-08-18T01:49:38.899Z,99815.42
2018-08-18T01:54:22.327Z,99800.92
2018-08-18T01:59:05.740Z,99808.57
2018-08-18T02:03:49.383Z,99809.40
2018-08-18T02:08:40.375Z,99810.39
2018-08-18T02:13:23.948Z,99813.08
2018-08-18T02:18:07.350Z,99812.08
2018-08-18T02:22:50.891Z,99822.27
2018-08-18T02:27:34.239Z,99821.15
2018-08-18T02:32:28.618Z,99816.16
2018-08-18T02:37:11.902Z,99820.09
2018-08-18T02:42:02.943Z,99822.58
2018-08-18T02:46:46.366Z,99827.10
2018-08-18T02:51:31.645Z,99832.30
2018-08-18T02:56:14.941Z,99833.88
2018-08-18T03:00:58.390Z,99838.34
2018-08-18T03:05:41.910Z,99842.18
2018-08-18T03:10:26.732Z,99849.86
2018-08-18T03:15:10.180Z,99863.27
2018-08-18T03:19:53.514Z,99869.97
2018-08-18T03:24:36.807Z,99877.95
2018-08-18T03:29:21.594Z,99877.89
2018-08-18T03:34:06.035Z,99881.96
2018-08-18T03:38:49.541Z,99870.25
2018-08-18T03:43:33.073Z,99879.86
2018-08-18T03:48:16.410Z,99894.44
2018-08-18T03:52:59.866Z,99887.77
2018-08-18T03:57:47.323Z,99892.73
2018-08-18T04:02:30.792Z,99893.66
2018-08-18T04:07:14.236Z,99895.71
2018-08-18T04:12:01.200Z,99904.28
2018-08-18T04:16:49.663Z,99904.66
2018-08-18T04:21:33.779Z,99898.11
2018-08-18T04:26:17.053Z,99900.77
2018-08-18T04:31:00.518Z,99907.99
2018-08-18T04:35:48.525Z,99905.66
2018-08-18T04:40:31.866Z,99918.42
2018-08-18T04:45:17.436Z,99913.58
2018-08-18T04:50:00.816Z,99913.80
2018-08-18T04:54:45.412Z,99908.45
2018-08-18T04:59:28.831Z,99910.35
2018-08-18T05:04:15.954Z,99911.59
2018-08-18T05:09:01.599Z,99910.08
2018-08-18T05:13:45.030Z,99918.61
2018-08-18T05:18:28.474Z,99909.05
2018-08-18T05:23:22.683Z,99917.50
2018-08-18T05:28:06.180Z,99927.23
2018-08-18T05:32:49.877Z,99919.28
2018-08-18T05:37:33.257Z,99926.33
2018-08-18T05:42:16.963Z,99924.69
2018-08-18T05:47:00.280Z,99929.46
2018-08-18T05:51:47.416Z,99932.25
2018-08-18T05:56:30.745Z,99934.63
2018-08-18T06:01:25.079Z,99931.78
2018-08-18T06:06:08.533Z,99931.14
2018-08-18T06:10:51.867Z,99927.59
2018-08-18T06:15:35.176Z,99923.34
2018-08-18T06:20:18.622Z,99930.27
2018-08-18T06:25:01.932Z,99930.11
2018-08-18T06:29:45.307Z,99942.06
2018-08-18T06:34:31.545Z,99939.87
2018-08-18T06:39:14.884Z,99939.39
2018-08-18T06:43:58.392Z,99947.09
2018-08-18T06:48:41.923Z,99947.52
2018-08-18T06:53:28.726Z,99951.21
2018-08-18T06:58:12.354Z,99951.42
2018-08-18T07:02:55.827Z,99949.00
2018-08-18T07:07:39.183Z,99950.44
2018-08-18T07:12:22.738Z,99950.74
2018-08-18T07:17:06.252Z,99951.54
2018-08-18T07:21:49.809Z,99950.28
2018-08-18T07:26:33.390Z,99951.55
2018-08-18T07:31:19.940Z,99958.59
2018-08-18T07:36:03.344Z,99953.75
2018-08-18T07:40:48.902Z,99951.56
2018-08-18T07:45:33.027Z,99958.68
2018-08-18T07:50:16.389Z,99947.36
2018-08-18T07:54:59.840Z,99956.53
2018-08-18T07:59:43.301Z,99957.80
2018-08-18T08:04:27.718Z,99950.87
2018-08-18T08:09:12.206Z,99960.48
2018-08-18T08:13:55.709Z,99960.34
2018-08-18T08:18:39.131Z,99948.06
2018-08-18T08:23:22.593Z,99960.44
2018-08-18T08:28:06.750Z,99954.00
2018-08-18T08:33:01.058Z,99960.40
2018-08-18T08:37:45.355Z,99951.62
2018-08-18T08:42:29.153Z,99953.34
2018-08-18T08:47:18.388Z,99959.84
2018-08-18T08:52:03.895Z,99956.95
2018-08-18T08:56:48.100Z,99959.97
2018-08-18T09:01:31.506Z,99961.63
2018-08-18T09:06:15.119Z,99957.74
2018-08-18T09:10:59.146Z,99943.06
2018-08-18T09:15:42.619Z,99945.24
2018-08-18T09:20:27.394Z,99951.85
2018-08-18T09:25:15.832Z,99943.09
2018-08-18T09:29:59.200Z,99944.87
2018-08-18T09:34:57.277Z,99952.88
2018-08-18T09:39:40.750Z,99946.73
2018-08-18T09:44:29.993Z,99948.07
2018-08-18T09:49:13.445Z,99950.25
2018-08-18T09:53:57.085Z,99953.16
2018-08-18T09:58:40.455Z,99948.06
2018-08-18T10:03:24.053Z,99949.61
2018-08-18T10:08:08.332Z,99950.75
2018-08-18T10:12:51.940Z,99947.98
2018-08-18T10:17:35.306Z,99955.55
2018-08-18T10:22:18.973Z,99946.72
2018-08-18T10:27:05.291Z,99943.53
2018-08-18T10:31:56.108Z,99944.00
2018-08-18T10:36:45.376Z,99945.09
2018-08-18T10:41:28.965Z,99942.67
2018-08-18T10:46:12.331Z,99947.41
2018-08-18T10:51:17.656Z,99955.59
2018-08-18T10:56:01.114Z,99955.23
2018-08-18T11:00:44.849Z,99953.92
2018-08-18T11:05:29.346Z,99966.36
2018-08-18T11:10:12.822Z,99963.28
2018-08-18T11:15:01.486Z,99977.52
2018-08-18T11:19:45.944Z,99969.16
2018-08-18T11:24:29.407Z,99970.91
2018-08-18T11:29:18.963Z,99972.81
2018-08-18T11:34:02.620Z,99975.48
2018-08-18T11:38:46.131Z,99977.75
2018-08-18T11:43:32.260Z,99980.27
2018-08-18T11:48:25.989Z,99980.41
2018-08-18T11:53:09.356Z,99981.44
2018-08-18T11:57:54.527Z,99970.44
2018-08-18T12:02:38.131Z,99965.33
2018-08-18T12:07:21.577Z,99961.76
2018-08-18T12:12:05.026Z,99962.28
2018-08-18T12:16:48.380Z,99971.80
2018-08-18T12:21:36.919Z,99966.38
2018-08-18T12:26:22.681Z,99968.36
2018-08-18T12:31:12.589Z,99960.73
2018-08-18T12:35:56.105Z,99964.80
2018-08-18T12:40:39.573Z,99979.64
2018-08-18T12:45:23.184Z,99966.48
2018-08-18T12:50:06.598Z,99957.63
2018-08-18T12:54:50.090Z,99961.39
2018-08-18T12:59:33.638Z,99965.97
2018-08-18T13:04:19.083Z,99975.00
2018-08-18T13:09:02.985Z,99969.56
2018-08-18T13:13:47.006Z,99969.47
2018-08-18T13:18:34.917Z,99965.07
2018-08-18T13:23:22.661Z,99958.08
2018-08-18T13:28:06.978Z,99970.83
2018-08-18T13:32:51.878Z,99967.27
2018-08-18T13:37:35.844Z,99972.55
2018-08-18T13:42:26.991Z,99973.33
2018-08-18T13:47:10.295Z,99969.56
2018-08-18T13:51:53.734Z,99976.23
2018-08-18T13:56:37.375Z,99972.63
2018-08-18T14:01:42.623Z,99967.47
2018-08-18T14:06:26.255Z,99979.38
2018-08-18T14:11:09.948Z,99978.67
2018-08-18T14:15:59.688Z,99978.13
2018-08-18T14:20:57.376Z,99971.60
2018-08-18T14:25:41.139Z,99976.73
2018-08-18T14:30:24.577Z,99982.55
2018-08-18T14:35:08.123Z,99981.28
2018-08-18T14:39:52.403Z,99973.61
2018-08-18T14:44:36.612Z,99978.44
2018-08-18T14:49:20.015Z,99980.12
2018-08-18T14:54:03.804Z,99988.67
2018-08-18T14:58:47.959Z,99989.05
2018-08-18T15:03:31.900Z,99994.72
2018-08-18T15:08:15.394Z,99992.72
2018-08-18T15:13:00.788Z,99992.64
2018-08-18T15:17:44.226Z,99997.66
2018-08-18T15:22:27.988Z,99989.02
2018-08-18T15:27:11.421Z,99989.50
2018-08-18T15:31:56.625Z,99993.57
2018-08-18T15:36:40.126Z,100000.19
2018-08-18T15:41:25.297Z,100001.12
2018-08-18T15:46:08.684Z,100003.56
2018-08-18T15:50:52.098Z,99999.66
2018-08-18T15:55:35.655Z,100002.67
2018-08-18T16:00:31.169Z,100009.34
2018-08-18T16:05:14.660Z,100008.53
2018-08-18T16:09:59.135Z,100009.87
2018-08-18T16:14:42.739Z,100010.03
2018-08-18T16:19:26.400Z,100010.20
2018-08-18T16:24:14.180Z,100018.87
2018-08-18T16:28:57.564Z,100017.88
2018-08-18T16:33:42.078Z,100021.10
2018-08-18T16:38:25.545Z,100020.90
2018-08-18T16:43:13.959Z,100025.16
2018-08-18T16:47:57.450Z,100025.64
2018-08-18T16:52:41.283Z,100032.24
2018-08-18T16:57:24.809Z,100050.52
2018-08-18T17:02:21.610Z,100055.89
2018-08-18T17:07:15.526Z,100060.39
2018-08-18T17:12:11.787Z,100075.03
2018-08-18T17:16:55.332Z,100084.23
2018-08-18T17:21:39.960Z,100092.41
2018-08-18T17:26:23.455Z,100098.33
2018-08-18T17:31:07.430Z,100097.56
2018-08-18T17:35:51.520Z,100095.56
2018-08-18T17:40:35.989Z,100093.86
2018-08-18T17:46:52.093Z,100098.58
2018-08-18T17:51:36.429Z,100097.89
2018-08-18T17:56:19.875Z,100108.58
2018-08-18T18:01:05.944Z,100114.25
2018-08-18T18:05:58.497Z,100122.42
2018-08-18T18:10:42.389Z,100137.97
2018-08-18T18:15:39.436Z,100140.32
2018-08-18T18:20:24.226Z,100140.23
2018-08-18T18:25:15.483Z,100141.37
2018-08-18T18:30:32.825Z,100146.27
2018-08-18T18:35:18.027Z,100147.58
2018-08-18T18:40:14.508Z,100152.05
2018-08-18T18:44:59.049Z,100158.02
2018-08-18T18:49:45.970Z,100153.53
2018-08-18T18:54:29.331Z,100141.41
2018-08-18T18:59:12.894Z,100138.53
2018-08-18T19:03:56.450Z,100141.41
2018-08-18T19:09:03.620Z,100143.50
2018-08-18T19:13:47.101Z,100158.41
2018-08-18T19:18:30.723Z,100164.52
2018-08-18T19:23:17.735Z,100169.37
2018-08-18T19:28:01.842Z,100169.69
2018-08-18T19:32:46.382Z,100169.75
2018-08-18T19:37:31.088Z,100166.34
2018-08-18T19:42:16.110Z,100170.38
2018-08-18T19:46:59.703Z,100178.58
2018-08-18T19:51:43.373Z,100174.83
2018-08-18T19:56:26.861Z,100177.51
2018-08-18T20:01:10.287Z,100175.26
2018-08-18T20:05:53.907Z,100175.22
2018-08-18T20:10:48.492Z,100178.36
2018-08-18T20:15:32.147Z,100179.11
2018-08-18T20:20:24.271Z,100183.38
2018-08-18T20:25:07.884Z,100187.20
2018-08-18T20:29:52.599Z,100190.31
2018-08-18T20:34:36.584Z,100195.82
2018-08-18T20:39:20.986Z,100199.41
2018-08-18T20:44:04.533Z,100211.10
2018-08-18T20:48:48.139Z,100220.13
2018-08-18T20:53:31.581Z,100219.87
2018-08-18T20:58:14.943Z,100218.69
2018-08-18T21:02:58.627Z,100220.31
2018-08-18T21:07:42.048Z,100217.58
2018-08-18T21:12:35.879Z,100217.25
2018-08-18T21:17:19.278Z,100221.22
2018-08-18T21:22:04.588Z,100222.15
2018-08-18T21:26:48.204Z,100219.69
2018-08-18T21:31:33.812Z,100223.83
2018-08-18T21:36:17.442Z,100222.16
2018-08-18T21:41:00.938Z,100222.16
2018-08-18T21:45:44.509Z,100216.44
2018-08-18T21:50:28.029Z,100210.59
2018-08-18T21:55:11.481Z,100212.90
2018-08-18T21:59:59.189Z,100221.30
2018-08-18T22:04:42.772Z,100218.52
2018-08-18T22:09:29.516Z,100221.57
2018-08-18T22:14:15.471Z,100215.91
2018-08-18T22:19:03.508Z,100229.48
2018-08-18T22:23:46.997Z,100215.92
2018-08-18T22:28:30.420Z,100223.32
2018-08-18T22:33:13.918Z,100227.14
2018-08-18T22:37:57.291Z,100227.24
2018-08-18T22:42:41.068Z,100236.23
2018-08-18T22:47:24.664Z,100230.74
2018-08-18T22:52:08.062Z,100233.01
2018-08-18T22:56:56.870Z,100232.90
2018-08-18T23:01:40.289Z,100228.88
2018-08-18T23:06:23.597Z,100239.66
2018-08-18T23:11:08.061Z,100230.02
2018-08-18T23:15:51.500Z,100225.75
2018-08-18T23:20:35.064Z,100221.45
2018-08-18T23:25:18.476Z,100214.94
2018-08-18T23:30:02.882Z,100205.50
2018-08-18T23:34:46.076Z,100217.34
2018-08-18T23:39:29.642Z,100223.03
2018-08-18T23:44:12.853Z,100213.66
2018-08-18T23:48:56.472Z,100217.58
2018-08-18T23:53:39.879Z,100218.40
2018-08-18T23:58:23.520Z,100223.28
